Airfield :
LOGIN :

Register | Disclaimer

   EN    FR    IT 

 










Legend :    VFR   Marginal VFR   IFR   Intensive IFR   Very Intensive IFR
Visi :
Ceiling :
>= 8 km
>= 3000ft
5 to 8 km
1000 to 3000 ft
1500m to 5 km
500 to 1000 ft
800 to 1500m
200 to 500 ft
< 800m
< 200 ft
Symbols :   Thunderstorms  Fog  Heavy snow  Heavy precipitations  Wind > 20 kt
SIGMETs :     Misc.  Thunderstorms  Icing  Turbulence  Mountain Waves  Volcanic Ashes







- Airport Elevation : 464 ft
- IATA code : EVX
- Download approach charts


LFOE - Evreux

CURRENT METAR :
  • 201230Z AUTO 29006KT 5000 BR FEW027 SCT033 BKN043 15/12 Q1012 TEMPO SCT035CB

EXPIRED METARs :
  • 201200Z AUTO 30007KT 5000 BR FEW016 SCT026 BKN031 15/12 Q1012 TEMPO SCT035CB
  • 201130Z AUTO 31006KT 270V340 5000 BR BKN017 BKN029 OVC037 15/11 Q1012 TEMPO SCT035CB
  • 201100Z AUTO 31005KT 280V360 5000 BR BKN017 BKN029 OVC036 15/12 Q1012 TEMPO SCT035CB
  • 201030Z AUTO 32006KT 280V360 4600 BR BKN014 BKN022 BKN028 15/13 Q1012 TEMPO 5000 NSW SCT035CB
  • 201000Z AUTO 30006KT 270V330 4100 BR SCT012 BKN018 BKN032 14/12 Q1012 BECMG 5000 NSW SCT035TCU

TAF AMD TAF LFOE
Valid from the 20 at 09:00 until the 21 at 09:00 UTC


200934Z 2009/2109 30005KT 4000 BR SCT010 BKN040
BECMG 2009/2010 5000 NSW
BECMG 2011/2012 SCT035TCU
PROB40
TEMPO 2012/2016 4000 -SHRA SCT035CB
BECMG 2101/2102 3000 BR BKN005
BECMG 2102/2103 0500 FG VV///
BECMG 2106/2108 6000 NSW SCT010
No reported NOTAMs for that airfield.



MET'MAP, your aeronautical weather chart ! - Copyright ORBIFLY December 2007 - Disclaimer

ORBIFLY MET'MAP TEAM :

Programming & Development : Alexandra Zaïnal
Concept & Development : Baudouin d'Aumeries
Co-Development & Prog : Marc-Olivier Méhu
Technical & hardware support : Manuel Goepfert

Contact : metmap@orbifly.com




SOURCES & CREDITS :

   NOAA